sensor_id;sensor_type;location;lat;lon;timestamp;P1;durP1;ratioP1;P2;durP2;ratioP2
20497;SDS011;10407;53.238;10.448;2022-12-07T00:01:09;26.20;;;15.10;;
20497;SDS011;10407;53.238;10.448;2022-12-07T00:03:39;22.20;;;13.57;;
20497;SDS011;10407;53.238;10.448;2022-12-07T00:06:08;22.87;;;13.30;;
20497;SDS011;10407;53.238;10.448;2022-12-07T00:08:37;18.10;;;11.97;;
20497;SDS011;10407;53.238;10.448;2022-12-07T00:11:09;19.30;;;11.70;;
20497;SDS011;10407;53.238;10.448;2022-12-07T00:13:38;18.77;;;11.53;;
20497;SDS011;10407;53.238;10.448;2022-12-07T00:16:07;18.13;;;11.60;;
20497;SDS011;10407;53.238;10.448;2022-12-07T00:18:37;22.80;;;13.27;;
20497;SDS011;10407;53.238;10.448;2022-12-07T00:21:07;24.70;;;12.00;;
20497;SDS011;10407;53.238;10.448;2022-12-07T00:23:40;21.00;;;11.50;;
20497;SDS011;10407;53.238;10.448;2022-12-07T00:26:09;17.40;;;12.10;;
20497;SDS011;10407;53.238;10.448;2022-12-07T00:28:50;23.13;;;13.00;;
20497;SDS011;10407;53.238;10.448;2022-12-07T00:31:20;18.70;;;12.00;;
20497;SDS011;10407;53.238;10.448;2022-12-07T00:33:50;20.97;;;12.03;;
20497;SDS011;10407;53.238;10.448;2022-12-07T00:36:19;19.20;;;11.43;;
20497;SDS011;10407;53.238;10.448;2022-12-07T00:38:48;18.20;;;10.60;;
20497;SDS011;10407;53.238;10.448;2022-12-07T00:41:17;19.90;;;11.50;;
20497;SDS011;10407;53.238;10.448;2022-12-07T00:43:47;19.20;;;11.33;;
20497;SDS011;10407;53.238;10.448;2022-12-07T00:46:15;20.90;;;13.17;;
20497;SDS011;10407;53.238;10.448;2022-12-07T00:48:44;18.17;;;10.47;;
20497;SDS011;10407;53.238;10.448;2022-12-07T00:51:13;17.87;;;11.03;;
20497;SDS011;10407;53.238;10.448;2022-12-07T00:53:42;17.70;;;10.90;;
20497;SDS011;10407;53.238;10.448;2022-12-07T00:56:22;17.80;;;10.63;;
20497;SDS011;10407;53.238;10.448;2022-12-07T00:58:53;23.27;;;12.10;;
20497;SDS011;10407;53.238;10.448;2022-12-07T01:01:23;16.97;;;11.67;;
20497;SDS011;10407;53.238;10.448;2022-12-07T01:03:53;18.97;;;10.60;;
20497;SDS011;10407;53.238;10.448;2022-12-07T01:06:21;22.07;;;11.97;;
20497;SDS011;10407;53.238;10.448;2022-12-07T01:08:49;23.07;;;10.80;;
20497;SDS011;10407;53.238;10.448;2022-12-07T01:11:17;18.50;;;10.40;;
20497;SDS011;10407;53.238;10.448;2022-12-07T01:13:48;21.33;;;12.23;;
20497;SDS011;10407;53.238;10.448;2022-12-07T01:16:20;21.10;;;11.90;;
20497;SDS011;10407;53.238;10.448;2022-12-07T01:18:49;21.73;;;12.00;;
20497;SDS011;10407;53.238;10.448;2022-12-07T01:21:26;14.97;;;9.87;;
20497;SDS011;10407;53.238;10.448;2022-12-07T01:24:00;20.00;;;11.77;;
20497;SDS011;10407;53.238;10.448;2022-12-07T01:26:24;21.53;;;11.27;;
20497;SDS011;10407;53.238;10.448;2022-12-07T01:28:52;19.13;;;11.10;;
20497;SDS011;10407;53.238;10.448;2022-12-07T01:31:21;18.53;;;11.23;;
20497;SDS011;10407;53.238;10.448;2022-12-07T01:33:51;16.40;;;10.20;;
20497;SDS011;10407;53.238;10.448;2022-12-07T01:36:22;18.50;;;10.87;;
20497;SDS011;10407;53.238;10.448;2022-12-07T01:38:52;21.43;;;11.00;;
20497;SDS011;10407;53.238;10.448;2022-12-07T01:41:22;17.30;;;10.13;;
20497;SDS011;10407;53.238;10.448;2022-12-07T01:46:44;18.43;;;9.90;;
20497;SDS011;10407;53.238;10.448;2022-12-07T01:49:31;19.00;;;11.03;;
20497;SDS011;10407;53.238;10.448;2022-12-07T01:51:58;17.13;;;10.63;;
20497;SDS011;10407;53.238;10.448;2022-12-07T01:54:26;18.60;;;11.27;;
20497;SDS011;10407;53.238;10.448;2022-12-07T01:56:55;14.77;;;9.40;;
20497;SDS011;10407;53.238;10.448;2022-12-07T01:59:24;19.57;;;12.10;;
20497;SDS011;10407;53.238;10.448;2022-12-07T02:01:53;19.00;;;11.33;;
20497;SDS011;10407;53.238;10.448;2022-12-07T02:04:22;18.00;;;10.00;;
20497;SDS011;10407;53.238;10.448;2022-12-07T02:06:50;23.50;;;10.47;;
20497;SDS011;10407;53.238;10.448;2022-12-07T02:09:20;16.57;;;10.53;;
20497;SDS011;10407;53.238;10.448;2022-12-07T02:11:47;18.17;;;10.33;;
20497;SDS011;10407;53.238;10.448;2022-12-07T02:14:15;16.10;;;10.50;;
20497;SDS011;10407;53.238;10.448;2022-12-07T02:28:09;19.60;;;9.77;;
20497;SDS011;10407;53.238;10.448;2022-12-07T02:30:40;21.17;;;8.87;;
20497;SDS011;10407;53.238;10.448;2022-12-07T02:33:15;17.97;;;8.87;;
20497;SDS011;10407;53.238;10.448;2022-12-07T02:35:46;15.87;;;8.73;;
20497;SDS011;10407;53.238;10.448;2022-12-07T02:38:29;17.40;;;9.30;;
20497;SDS011;10407;53.238;10.448;2022-12-07T02:41:16;15.60;;;9.00;;
20497;SDS011;10407;53.238;10.448;2022-12-07T02:43:47;16.83;;;9.67;;
20497;SDS011;10407;53.238;10.448;2022-12-07T02:46:23;15.87;;;9.30;;
20497;SDS011;10407;53.238;10.448;2022-12-07T02:48:59;20.43;;;9.90;;
20497;SDS011;10407;53.238;10.448;2022-12-07T02:51:29;15.33;;;9.00;;
20497;SDS011;10407;53.238;10.448;2022-12-07T02:54:17;21.77;;;8.80;;
20497;SDS011;10407;53.238;10.448;2022-12-07T02:59:44;16.67;;;9.00;;
20497;SDS011;10407;53.238;10.448;2022-12-07T03:05:00;12.20;;;7.20;;
20497;SDS011;10407;53.238;10.448;2022-12-07T03:10:28;12.40;;;7.20;;
20497;SDS011;10407;53.238;10.448;2022-12-07T03:13:39;13.47;;;6.80;;
20497;SDS011;10407;53.238;10.448;2022-12-07T03:16:14;12.57;;;7.23;;
20497;SDS011;10407;53.238;10.448;2022-12-07T03:18:45;13.30;;;7.53;;
20497;SDS011;10407;53.238;10.448;2022-12-07T03:21:22;9.43;;;5.47;;
20497;SDS011;10407;53.238;10.448;2022-12-07T03:23:51;10.30;;;5.60;;
20497;SDS011;10407;53.238;10.448;2022-12-07T03:26:22;9.50;;;5.77;;
20497;SDS011;10407;53.238;10.448;2022-12-07T03:28:52;11.10;;;6.63;;
20497;SDS011;10407;53.238;10.448;2022-12-07T03:31:23;9.47;;;6.20;;
20497;SDS011;10407;53.238;10.448;2022-12-07T03:33:58;9.83;;;5.47;;
20497;SDS011;10407;53.238;10.448;2022-12-07T03:36:29;13.80;;;6.13;;
20497;SDS011;10407;53.238;10.448;2022-12-07T03:41:50;10.40;;;5.87;;
20497;SDS011;10407;53.238;10.448;2022-12-07T03:44:18;9.90;;;5.37;;
20497;SDS011;10407;53.238;10.448;2022-12-07T03:49:46;10.73;;;5.40;;
20497;SDS011;10407;53.238;10.448;2022-12-07T03:52:32;9.90;;;5.67;;
20497;SDS011;10407;53.238;10.448;2022-12-07T03:55:22;7.10;;;4.70;;
20497;SDS011;10407;53.238;10.448;2022-12-07T03:57:47;8.90;;;4.53;;
20497;SDS011;10407;53.238;10.448;2022-12-07T04:00:16;9.20;;;5.10;;
20497;SDS011;10407;53.238;10.448;2022-12-07T04:02:45;10.80;;;5.10;;
20497;SDS011;10407;53.238;10.448;2022-12-07T04:05:13;11.80;;;5.03;;
20497;SDS011;10407;53.238;10.448;2022-12-07T04:07:40;7.60;;;4.57;;
20497;SDS011;10407;53.238;10.448;2022-12-07T04:10:08;9.87;;;4.70;;
20497;SDS011;10407;53.238;10.448;2022-12-07T04:12:37;9.97;;;5.70;;
20497;SDS011;10407;53.238;10.448;2022-12-07T04:15:05;8.10;;;4.60;;
20497;SDS011;10407;53.238;10.448;2022-12-07T04:17:33;9.10;;;4.47;;
20497;SDS011;10407;53.238;10.448;2022-12-07T04:20:00;8.13;;;4.83;;
20497;SDS011;10407;53.238;10.448;2022-12-07T04:22:29;7.83;;;4.83;;
20497;SDS011;10407;53.238;10.448;2022-12-07T04:24:57;8.10;;;4.17;;
20497;SDS011;10407;53.238;10.448;2022-12-07T04:27:24;6.20;;;4.43;;
20497;SDS011;10407;53.238;10.448;2022-12-07T04:29:52;11.33;;;5.20;;
20497;SDS011;10407;53.238;10.448;2022-12-07T04:32:21;11.03;;;5.00;;
20497;SDS011;10407;53.238;10.448;2022-12-07T04:34:49;20.20;;;4.97;;
20497;SDS011;10407;53.238;10.448;2022-12-07T04:37:23;8.87;;;4.87;;
20497;SDS011;10407;53.238;10.448;2022-12-07T04:39:51;7.80;;;4.80;;
20497;SDS011;10407;53.238;10.448;2022-12-07T04:42:18;10.57;;;4.93;;
20497;SDS011;10407;53.238;10.448;2022-12-07T04:44:46;12.80;;;5.20;;
20497;SDS011;10407;53.238;10.448;2022-12-07T04:47:13;6.87;;;4.10;;
20497;SDS011;10407;53.238;10.448;2022-12-07T04:49:41;8.33;;;4.57;;
20497;SDS011;10407;53.238;10.448;2022-12-07T04:52:08;13.90;;;5.03;;
20497;SDS011;10407;53.238;10.448;2022-12-07T04:54:36;9.27;;;5.03;;
20497;SDS011;10407;53.238;10.448;2022-12-07T04:57:03;10.77;;;5.30;;
20497;SDS011;10407;53.238;10.448;2022-12-07T04:59:31;11.30;;;5.20;;
20497;SDS011;10407;53.238;10.448;2022-12-07T05:01:58;7.07;;;3.90;;
20497;SDS011;10407;53.238;10.448;2022-12-07T05:04:26;10.37;;;4.07;;
20497;SDS011;10407;53.238;10.448;2022-12-07T05:06:53;7.93;;;4.00;;
20497;SDS011;10407;53.238;10.448;2022-12-07T05:09:21;8.63;;;4.20;;
20497;SDS011;10407;53.238;10.448;2022-12-07T05:11:48;8.80;;;3.80;;
20497;SDS011;10407;53.238;10.448;2022-12-07T05:14:17;8.10;;;3.70;;
20497;SDS011;10407;53.238;10.448;2022-12-07T05:16:47;9.60;;;4.13;;
20497;SDS011;10407;53.238;10.448;2022-12-07T05:19:16;8.17;;;4.03;;
20497;SDS011;10407;53.238;10.448;2022-12-07T05:21:45;8.63;;;4.20;;
20497;SDS011;10407;53.238;10.448;2022-12-07T05:24:13;10.23;;;4.10;;
20497;SDS011;10407;53.238;10.448;2022-12-07T05:26:42;10.00;;;3.87;;
20497;SDS011;10407;53.238;10.448;2022-12-07T05:29:12;6.93;;;3.87;;
20497;SDS011;10407;53.238;10.448;2022-12-07T05:31:41;9.83;;;3.50;;
20497;SDS011;10407;53.238;10.448;2022-12-07T05:34:10;8.67;;;3.77;;
20497;SDS011;10407;53.238;10.448;2022-12-07T05:36:38;6.50;;;3.63;;
20497;SDS011;10407;53.238;10.448;2022-12-07T05:39:05;6.73;;;3.93;;
20497;SDS011;10407;53.238;10.448;2022-12-07T05:41:34;5.03;;;3.40;;
20497;SDS011;10407;53.238;10.448;2022-12-07T05:44:19;5.83;;;3.07;;
20497;SDS011;10407;53.238;10.448;2022-12-07T05:46:47;5.93;;;2.83;;
20497;SDS011;10407;53.238;10.448;2022-12-07T05:49:15;6.20;;;3.23;;
20497;SDS011;10407;53.238;10.448;2022-12-07T05:51:42;6.47;;;3.23;;
20497;SDS011;10407;53.238;10.448;2022-12-07T05:54:10;9.63;;;3.30;;
20497;SDS011;10407;53.238;10.448;2022-12-07T05:56:37;9.80;;;3.77;;
20497;SDS011;10407;53.238;10.448;2022-12-07T05:59:05;5.23;;;3.43;;
20497;SDS011;10407;53.238;10.448;2022-12-07T06:01:53;5.30;;;3.20;;
20497;SDS011;10407;53.238;10.448;2022-12-07T06:07:03;5.60;;;3.17;;
20497;SDS011;10407;53.238;10.448;2022-12-07T06:09:32;5.40;;;3.60;;
20497;SDS011;10407;53.238;10.448;2022-12-07T06:12:01;7.37;;;3.40;;
20497;SDS011;10407;53.238;10.448;2022-12-07T06:14:47;5.77;;;3.60;;
20497;SDS011;10407;53.238;10.448;2022-12-07T06:17:14;7.33;;;4.10;;
20497;SDS011;10407;53.238;10.448;2022-12-07T06:19:42;9.10;;;3.87;;
20497;SDS011;10407;53.238;10.448;2022-12-07T06:22:10;8.30;;;3.57;;
20497;SDS011;10407;53.238;10.448;2022-12-07T06:24:38;7.03;;;3.93;;
20497;SDS011;10407;53.238;10.448;2022-12-07T06:27:07;9.53;;;4.10;;
20497;SDS011;10407;53.238;10.448;2022-12-07T06:29:35;8.83;;;3.73;;
20497;SDS011;10407;53.238;10.448;2022-12-07T06:32:03;6.73;;;3.53;;
20497;SDS011;10407;53.238;10.448;2022-12-07T06:34:31;7.80;;;3.83;;
20497;SDS011;10407;53.238;10.448;2022-12-07T06:36:59;7.53;;;3.73;;
20497;SDS011;10407;53.238;10.448;2022-12-07T06:39:27;7.10;;;4.10;;
20497;SDS011;10407;53.238;10.448;2022-12-07T06:41:55;9.60;;;4.43;;
20497;SDS011;10407;53.238;10.448;2022-12-07T06:44:23;6.47;;;4.10;;
20497;SDS011;10407;53.238;10.448;2022-12-07T06:46:51;8.17;;;4.80;;
20497;SDS011;10407;53.238;10.448;2022-12-07T06:49:20;10.07;;;3.97;;
20497;SDS011;10407;53.238;10.448;2022-12-07T06:51:47;7.27;;;3.70;;
20497;SDS011;10407;53.238;10.448;2022-12-07T06:54:15;8.80;;;4.00;;
20497;SDS011;10407;53.238;10.448;2022-12-07T06:56:43;6.30;;;4.20;;
20497;SDS011;10407;53.238;10.448;2022-12-07T06:59:10;8.70;;;3.93;;
20497;SDS011;10407;53.238;10.448;2022-12-07T07:01:38;7.93;;;3.67;;
20497;SDS011;10407;53.238;10.448;2022-12-07T07:04:05;10.20;;;3.73;;
20497;SDS011;10407;53.238;10.448;2022-12-07T07:06:33;8.80;;;3.50;;
20497;SDS011;10407;53.238;10.448;2022-12-07T07:09:00;11.40;;;4.30;;
20497;SDS011;10407;53.238;10.448;2022-12-07T07:11:28;8.23;;;4.20;;
20497;SDS011;10407;53.238;10.448;2022-12-07T07:13:55;11.43;;;3.40;;
20497;SDS011;10407;53.238;10.448;2022-12-07T07:16:24;7.43;;;3.23;;
20497;SDS011;10407;53.238;10.448;2022-12-07T07:18:52;16.57;;;8.80;;
20497;SDS011;10407;53.238;10.448;2022-12-07T07:21:19;31.70;;;18.40;;
20497;SDS011;10407;53.238;10.448;2022-12-07T07:23:47;12.83;;;6.23;;
20497;SDS011;10407;53.238;10.448;2022-12-07T07:26:15;7.73;;;3.50;;
20497;SDS011;10407;53.238;10.448;2022-12-07T07:28:43;5.33;;;3.10;;
20497;SDS011;10407;53.238;10.448;2022-12-07T07:31:10;11.10;;;4.47;;
20497;SDS011;10407;53.238;10.448;2022-12-07T07:33:38;6.37;;;3.77;;
20497;SDS011;10407;53.238;10.448;2022-12-07T07:36:07;10.77;;;3.40;;
20497;SDS011;10407;53.238;10.448;2022-12-07T07:38:35;6.77;;;3.80;;
20497;SDS011;10407;53.238;10.448;2022-12-07T07:41:02;7.73;;;3.53;;
20497;SDS011;10407;53.238;10.448;2022-12-07T07:43:30;4.10;;;2.90;;
20497;SDS011;10407;53.238;10.448;2022-12-07T07:45:58;5.70;;;3.57;;
20497;SDS011;10407;53.238;10.448;2022-12-07T07:48:26;6.07;;;3.13;;
20497;SDS011;10407;53.238;10.448;2022-12-07T07:50:53;4.30;;;2.83;;
20497;SDS011;10407;53.238;10.448;2022-12-07T07:53:21;5.90;;;3.30;;
20497;SDS011;10407;53.238;10.448;2022-12-07T07:55:52;6.53;;;3.80;;
20497;SDS011;10407;53.238;10.448;2022-12-07T07:58:20;5.60;;;3.27;;
20497;SDS011;10407;53.238;10.448;2022-12-07T08:00:48;4.50;;;3.00;;
20497;SDS011;10407;53.238;10.448;2022-12-07T08:03:15;6.00;;;3.40;;
20497;SDS011;10407;53.238;10.448;2022-12-07T08:05:43;5.20;;;3.13;;
20497;SDS011;10407;53.238;10.448;2022-12-07T08:08:11;6.40;;;3.10;;
20497;SDS011;10407;53.238;10.448;2022-12-07T08:10:38;5.53;;;3.30;;
20497;SDS011;10407;53.238;10.448;2022-12-07T08:13:06;4.00;;;2.57;;
20497;SDS011;10407;53.238;10.448;2022-12-07T08:15:37;7.90;;;2.80;;
20497;SDS011;10407;53.238;10.448;2022-12-07T08:18:07;5.27;;;3.53;;
20497;SDS011;10407;53.238;10.448;2022-12-07T08:20:35;7.20;;;3.40;;
20497;SDS011;10407;53.238;10.448;2022-12-07T08:23:04;72.77;;;31.33;;
20497;SDS011;10407;53.238;10.448;2022-12-07T08:25:32;26.90;;;12.00;;
20497;SDS011;10407;53.238;10.448;2022-12-07T08:28:00;10.70;;;4.73;;
20497;SDS011;10407;53.238;10.448;2022-12-07T08:30:28;5.00;;;2.90;;
20497;SDS011;10407;53.238;10.448;2022-12-07T08:32:56;3.40;;;3.07;;
20497;SDS011;10407;53.238;10.448;2022-12-07T08:35:24;3.43;;;2.77;;
20497;SDS011;10407;53.238;10.448;2022-12-07T08:37:52;6.53;;;2.93;;
20497;SDS011;10407;53.238;10.448;2022-12-07T08:40:19;7.40;;;3.10;;
20497;SDS011;10407;53.238;10.448;2022-12-07T08:42:50;4.10;;;2.67;;
20497;SDS011;10407;53.238;10.448;2022-12-07T08:45:18;4.30;;;2.70;;
20497;SDS011;10407;53.238;10.448;2022-12-07T08:47:50;6.00;;;3.23;;
20497;SDS011;10407;53.238;10.448;2022-12-07T08:50:25;4.57;;;3.20;;
20497;SDS011;10407;53.238;10.448;2022-12-07T08:52:54;4.10;;;2.80;;
20497;SDS011;10407;53.238;10.448;2022-12-07T08:55:23;7.80;;;5.73;;
20497;SDS011;10407;53.238;10.448;2022-12-07T08:57:53;27.20;;;13.20;;
20497;SDS011;10407;53.238;10.448;2022-12-07T09:00:21;10.40;;;4.90;;
20497;SDS011;10407;53.238;10.448;2022-12-07T09:02:48;6.83;;;2.77;;
20497;SDS011;10407;53.238;10.448;2022-12-07T09:05:16;9.37;;;3.57;;
20497;SDS011;10407;53.238;10.448;2022-12-07T09:07:44;7.17;;;2.80;;
20497;SDS011;10407;53.238;10.448;2022-12-07T09:10:14;5.30;;;2.93;;
20497;SDS011;10407;53.238;10.448;2022-12-07T09:12:41;2.87;;;2.33;;
20497;SDS011;10407;53.238;10.448;2022-12-07T09:15:09;7.37;;;3.17;;
20497;SDS011;10407;53.238;10.448;2022-12-07T09:17:36;6.13;;;2.57;;
20497;SDS011;10407;53.238;10.448;2022-12-07T09:20:04;5.00;;;2.60;;
20497;SDS011;10407;53.238;10.448;2022-12-07T09:22:34;3.43;;;2.40;;
20497;SDS011;10407;53.238;10.448;2022-12-07T09:25:01;7.00;;;3.07;;
20497;SDS011;10407;53.238;10.448;2022-12-07T09:27:30;6.23;;;2.90;;
20497;SDS011;10407;53.238;10.448;2022-12-07T09:29:58;5.33;;;2.40;;
20497;SDS011;10407;53.238;10.448;2022-12-07T09:32:25;3.57;;;2.30;;
20497;SDS011;10407;53.238;10.448;2022-12-07T09:34:53;4.20;;;2.53;;
20497;SDS011;10407;53.238;10.448;2022-12-07T09:37:21;5.10;;;2.37;;
20497;SDS011;10407;53.238;10.448;2022-12-07T09:39:48;4.00;;;2.30;;
20497;SDS011;10407;53.238;10.448;2022-12-07T09:42:30;5.07;;;2.53;;
20497;SDS011;10407;53.238;10.448;2022-12-07T09:45:02;7.97;;;3.27;;
20497;SDS011;10407;53.238;10.448;2022-12-07T09:47:32;5.37;;;2.50;;
20497;SDS011;10407;53.238;10.448;2022-12-07T09:50:03;12.10;;;6.43;;
20497;SDS011;10407;53.238;10.448;2022-12-07T09:52:34;62.30;;;31.40;;
20497;SDS011;10407;53.238;10.448;2022-12-07T09:55:02;9.00;;;4.40;;
20497;SDS011;10407;53.238;10.448;2022-12-07T09:57:32;8.07;;;2.87;;
20497;SDS011;10407;53.238;10.448;2022-12-07T10:00:05;7.13;;;2.20;;
20497;SDS011;10407;53.238;10.448;2022-12-07T10:05:10;5.57;;;2.27;;
20497;SDS011;10407;53.238;10.448;2022-12-07T10:07:37;7.87;;;2.37;;
20497;SDS011;10407;53.238;10.448;2022-12-07T10:10:16;5.97;;;2.40;;
20497;SDS011;10407;53.238;10.448;2022-12-07T10:18:36;20.63;;;10.40;;
20497;SDS011;10407;53.238;10.448;2022-12-07T10:26:35;5.17;;;2.53;;
20497;SDS011;10407;53.238;10.448;2022-12-07T10:29:01;6.13;;;2.43;;
20497;SDS011;10407;53.238;10.448;2022-12-07T10:31:30;5.80;;;2.30;;
20497;SDS011;10407;53.238;10.448;2022-12-07T10:33:59;7.40;;;2.00;;
20497;SDS011;10407;53.238;10.448;2022-12-07T10:36:37;4.93;;;2.63;;
20497;SDS011;10407;53.238;10.448;2022-12-07T10:39:13;10.33;;;2.13;;
20497;SDS011;10407;53.238;10.448;2022-12-07T10:41:55;5.30;;;1.97;;
20497;SDS011;10407;53.238;10.448;2022-12-07T10:44:32;4.90;;;2.50;;
20497;SDS011;10407;53.238;10.448;2022-12-07T10:47:25;8.33;;;2.10;;
20497;SDS011;10407;53.238;10.448;2022-12-07T11:13:35;7.87;;;2.50;;
20497;SDS011;10407;53.238;10.448;2022-12-07T11:16:09;5.70;;;1.90;;
20497;SDS011;10407;53.238;10.448;2022-12-07T11:21:40;7.23;;;2.30;;
20497;SDS011;10407;53.238;10.448;2022-12-07T11:24:19;7.10;;;1.83;;
20497;SDS011;10407;53.238;10.448;2022-12-07T11:35:22;3.73;;;1.67;;
20497;SDS011;10407;53.238;10.448;2022-12-07T11:37:49;7.90;;;2.33;;
20497;SDS011;10407;53.238;10.448;2022-12-07T11:40:21;3.80;;;1.50;;
20497;SDS011;10407;53.238;10.448;2022-12-07T11:43:04;5.20;;;2.40;;
20497;SDS011;10407;53.238;10.448;2022-12-07T11:45:31;5.83;;;2.63;;
20497;SDS011;10407;53.238;10.448;2022-12-07T11:48:09;5.63;;;2.13;;
20497;SDS011;10407;53.238;10.448;2022-12-07T11:50:37;4.10;;;2.10;;
20497;SDS011;10407;53.238;10.448;2022-12-07T11:53:11;6.23;;;4.20;;
20497;SDS011;10407;53.238;10.448;2022-12-07T12:06:45;4.50;;;2.30;;
20497;SDS011;10407;53.238;10.448;2022-12-07T12:09:22;9.17;;;3.30;;
20497;SDS011;10407;53.238;10.448;2022-12-07T12:12:13;9.33;;;2.43;;
20497;SDS011;10407;53.238;10.448;2022-12-07T12:18:00;5.03;;;2.10;;
20497;SDS011;10407;53.238;10.448;2022-12-07T12:23:16;8.23;;;2.33;;
20497;SDS011;10407;53.238;10.448;2022-12-07T12:28:27;6.97;;;2.03;;
20497;SDS011;10407;53.238;10.448;2022-12-07T12:33:47;3.73;;;2.30;;
20497;SDS011;10407;53.238;10.448;2022-12-07T12:36:26;5.73;;;2.23;;
20497;SDS011;10407;53.238;10.448;2022-12-07T12:46:53;9.43;;;2.30;;
20497;SDS011;10407;53.238;10.448;2022-12-07T12:52:00;6.47;;;2.90;;
20497;SDS011;10407;53.238;10.448;2022-12-07T12:54:30;7.87;;;2.17;;
20497;SDS011;10407;53.238;10.448;2022-12-07T12:59:42;7.13;;;2.50;;
20497;SDS011;10407;53.238;10.448;2022-12-07T13:02:27;7.43;;;2.43;;
20497;SDS011;10407;53.238;10.448;2022-12-07T13:15:42;4.70;;;2.37;;
20497;SDS011;10407;53.238;10.448;2022-12-07T13:21:01;9.13;;;2.60;;
20497;SDS011;10407;53.238;10.448;2022-12-07T13:26:20;3.70;;;2.43;;
20497;SDS011;10407;53.238;10.448;2022-12-07T13:29:05;11.17;;;3.00;;
20497;SDS011;10407;53.238;10.448;2022-12-07T13:31:41;4.10;;;2.30;;
20497;SDS011;10407;53.238;10.448;2022-12-07T13:39:49;7.30;;;2.23;;
20497;SDS011;10407;53.238;10.448;2022-12-07T13:42:28;5.30;;;2.30;;
20497;SDS011;10407;53.238;10.448;2022-12-07T13:44:55;6.73;;;2.20;;
20497;SDS011;10407;53.238;10.448;2022-12-07T13:47:35;5.80;;;2.90;;
20497;SDS011;10407;53.238;10.448;2022-12-07T13:50:26;5.30;;;2.00;;
20497;SDS011;10407;53.238;10.448;2022-12-07T13:53:01;7.70;;;2.90;;
20497;SDS011;10407;53.238;10.448;2022-12-07T13:55:26;4.90;;;2.07;;
20497;SDS011;10407;53.238;10.448;2022-12-07T13:57:55;7.97;;;1.97;;
20497;SDS011;10407;53.238;10.448;2022-12-07T14:00:24;6.67;;;2.00;;
20497;SDS011;10407;53.238;10.448;2022-12-07T14:02:58;5.60;;;2.17;;
20497;SDS011;10407;53.238;10.448;2022-12-07T14:05:31;7.83;;;2.67;;
20497;SDS011;10407;53.238;10.448;2022-12-07T14:08:02;5.90;;;2.70;;
20497;SDS011;10407;53.238;10.448;2022-12-07T14:10:39;11.80;;;2.57;;
20497;SDS011;10407;53.238;10.448;2022-12-07T14:16:05;4.73;;;1.90;;
20497;SDS011;10407;53.238;10.448;2022-12-07T14:18:37;4.57;;;1.90;;
20497;SDS011;10407;53.238;10.448;2022-12-07T14:21:16;5.23;;;2.03;;
20497;SDS011;10407;53.238;10.448;2022-12-07T14:23:44;7.73;;;3.00;;
20497;SDS011;10407;53.238;10.448;2022-12-07T14:26:14;6.33;;;2.43;;
20497;SDS011;10407;53.238;10.448;2022-12-07T14:28:44;4.37;;;2.40;;
20497;SDS011;10407;53.238;10.448;2022-12-07T14:31:13;6.43;;;2.40;;
20497;SDS011;10407;53.238;10.448;2022-12-07T14:33:42;10.30;;;2.60;;
20497;SDS011;10407;53.238;10.448;2022-12-07T14:36:10;4.63;;;2.10;;
20497;SDS011;10407;53.238;10.448;2022-12-07T14:38:39;7.60;;;2.17;;
20497;SDS011;10407;53.238;10.448;2022-12-07T14:41:11;3.93;;;2.13;;
20497;SDS011;10407;53.238;10.448;2022-12-07T14:43:55;9.50;;;3.30;;
20497;SDS011;10407;53.238;10.448;2022-12-07T14:46:23;10.77;;;2.30;;
20497;SDS011;10407;53.238;10.448;2022-12-07T14:48:50;11.67;;;2.77;;
20497;SDS011;10407;53.238;10.448;2022-12-07T14:51:18;5.07;;;2.80;;
20497;SDS011;10407;53.238;10.448;2022-12-07T14:53:48;4.30;;;1.90;;
20497;SDS011;10407;53.238;10.448;2022-12-07T14:56:16;18.87;;;7.20;;
20497;SDS011;10407;53.238;10.448;2022-12-07T14:58:44;12.03;;;2.87;;
20497;SDS011;10407;53.238;10.448;2022-12-07T15:01:13;8.53;;;3.63;;
20497;SDS011;10407;53.238;10.448;2022-12-07T15:03:41;8.37;;;2.70;;
20497;SDS011;10407;53.238;10.448;2022-12-07T15:06:10;8.80;;;3.03;;
20497;SDS011;10407;53.238;10.448;2022-12-07T15:08:39;5.63;;;2.70;;
20497;SDS011;10407;53.238;10.448;2022-12-07T15:11:08;4.30;;;2.20;;
20497;SDS011;10407;53.238;10.448;2022-12-07T15:13:39;5.53;;;2.70;;
20497;SDS011;10407;53.238;10.448;2022-12-07T15:16:25;5.20;;;3.40;;
20497;SDS011;10407;53.238;10.448;2022-12-07T15:18:52;8.53;;;3.10;;
20497;SDS011;10407;53.238;10.448;2022-12-07T15:21:20;8.60;;;3.53;;
20497;SDS011;10407;53.238;10.448;2022-12-07T15:23:47;10.93;;;3.70;;
20497;SDS011;10407;53.238;10.448;2022-12-07T15:26:15;8.50;;;3.27;;
20497;SDS011;10407;53.238;10.448;2022-12-07T15:28:42;5.83;;;2.53;;
20497;SDS011;10407;53.238;10.448;2022-12-07T15:31:18;8.33;;;2.60;;
20497;SDS011;10407;53.238;10.448;2022-12-07T15:33:43;8.33;;;2.50;;
20497;SDS011;10407;53.238;10.448;2022-12-07T15:36:18;10.10;;;3.33;;
20497;SDS011;10407;53.238;10.448;2022-12-07T15:38:47;8.50;;;3.67;;
20497;SDS011;10407;53.238;10.448;2022-12-07T15:41:15;7.87;;;3.60;;
20497;SDS011;10407;53.238;10.448;2022-12-07T15:43:43;2.57;;;2.10;;
20497;SDS011;10407;53.238;10.448;2022-12-07T15:46:29;8.83;;;2.80;;
20497;SDS011;10407;53.238;10.448;2022-12-07T15:48:58;10.20;;;3.30;;
20497;SDS011;10407;53.238;10.448;2022-12-07T15:51:26;11.47;;;3.30;;
20497;SDS011;10407;53.238;10.448;2022-12-07T15:53:53;9.83;;;4.00;;
20497;SDS011;10407;53.238;10.448;2022-12-07T15:56:21;11.50;;;2.67;;
20497;SDS011;10407;53.238;10.448;2022-12-07T15:58:48;15.93;;;3.47;;
20497;SDS011;10407;53.238;10.448;2022-12-07T16:01:17;7.00;;;3.17;;
20497;SDS011;10407;53.238;10.448;2022-12-07T16:03:45;7.13;;;3.13;;
20497;SDS011;10407;53.238;10.448;2022-12-07T16:06:17;12.00;;;5.53;;
20497;SDS011;10407;53.238;10.448;2022-12-07T16:08:45;5.00;;;2.73;;
20497;SDS011;10407;53.238;10.448;2022-12-07T16:11:13;6.50;;;3.03;;
20497;SDS011;10407;53.238;10.448;2022-12-07T16:13:41;6.93;;;3.97;;
20497;SDS011;10407;53.238;10.448;2022-12-07T16:16:14;7.03;;;3.20;;
20497;SDS011;10407;53.238;10.448;2022-12-07T16:18:39;7.67;;;3.33;;
20497;SDS011;10407;53.238;10.448;2022-12-07T16:21:08;5.50;;;3.33;;
20497;SDS011;10407;53.238;10.448;2022-12-07T16:23:35;9.63;;;3.53;;
20497;SDS011;10407;53.238;10.448;2022-12-07T16:26:04;8.83;;;3.67;;
20497;SDS011;10407;53.238;10.448;2022-12-07T16:28:36;7.17;;;3.60;;
20497;SDS011;10407;53.238;10.448;2022-12-07T16:31:04;10.40;;;3.93;;
20497;SDS011;10407;53.238;10.448;2022-12-07T16:33:35;9.00;;;3.93;;
20497;SDS011;10407;53.238;10.448;2022-12-07T16:36:04;10.40;;;4.40;;
20497;SDS011;10407;53.238;10.448;2022-12-07T16:38:33;10.80;;;4.67;;
20497;SDS011;10407;53.238;10.448;2022-12-07T16:41:01;6.00;;;4.10;;
20497;SDS011;10407;53.238;10.448;2022-12-07T16:43:29;6.20;;;3.90;;
20497;SDS011;10407;53.238;10.448;2022-12-07T16:45:56;12.93;;;4.20;;
20497;SDS011;10407;53.238;10.448;2022-12-07T16:48:24;9.87;;;4.43;;
20497;SDS011;10407;53.238;10.448;2022-12-07T16:50:52;12.90;;;5.03;;
20497;SDS011;10407;53.238;10.448;2022-12-07T16:53:20;12.00;;;4.87;;
20497;SDS011;10407;53.238;10.448;2022-12-07T16:55:49;9.63;;;5.07;;
20497;SDS011;10407;53.238;10.448;2022-12-07T16:58:17;8.40;;;5.17;;
20497;SDS011;10407;53.238;10.448;2022-12-07T17:00:45;35.00;;;17.10;;
20497;SDS011;10407;53.238;10.448;2022-12-07T17:03:14;25.63;;;12.63;;
20497;SDS011;10407;53.238;10.448;2022-12-07T17:05:43;19.87;;;8.40;;
20497;SDS011;10407;53.238;10.448;2022-12-07T17:08:12;14.83;;;6.27;;